createdAt,value
2023-01-26T00:11:37.397Z,19.50
2023-01-26T00:12:37.387Z,19.50
2023-01-26T00:13:37.367Z,19.49
2023-01-26T00:14:37.891Z,19.50
2023-01-26T00:15:37.345Z,19.49
2023-01-26T00:16:37.347Z,19.49
2023-01-26T00:17:37.330Z,19.49
2023-01-26T00:18:37.387Z,19.49
2023-01-26T00:19:37.324Z,19.49
2023-01-26T01:28:36.852Z,19.42
2023-01-26T01:29:36.863Z,19.42
2023-01-26T01:30:36.847Z,19.42
2023-01-26T01:31:36.932Z,19.42
2023-01-26T01:32:36.847Z,19.41
2023-01-26T01:33:36.841Z,19.42
2023-01-26T01:34:36.834Z,19.40
2023-01-26T01:35:36.821Z,19.42
2023-01-26T01:36:36.829Z,19.41
2023-01-26T01:37:36.898Z,19.42
2023-01-26T01:38:36.814Z,19.41
2023-01-26T01:39:36.820Z,19.41
2023-01-26T02:23:36.666Z,19.42
2023-01-26T02:24:36.665Z,19.42
2023-01-26T02:25:36.662Z,19.42
2023-01-26T02:26:36.632Z,19.43
2023-01-26T02:27:36.628Z,19.44
2023-01-26T02:28:36.624Z,19.43
2023-01-26T02:29:36.610Z,19.45
2023-01-26T02:30:36.632Z,19.45
2023-01-26T02:31:36.635Z,19.46
2023-01-26T02:32:36.573Z,19.46
2023-01-26T02:33:36.558Z,19.47
2023-01-26T02:34:36.604Z,19.46
2023-01-26T02:35:36.548Z,19.47
2023-01-26T02:36:36.522Z,19.47
2023-01-26T02:37:36.561Z,19.47
2023-01-26T02:38:39.075Z,19.48
2023-01-26T02:39:36.429Z,19.48
2023-01-26T02:40:36.373Z,19.49
2023-01-26T02:42:36.326Z,19.50
2023-01-26T02:43:36.940Z,19.50
2023-01-26T02:44:36.145Z,19.50
2023-01-26T02:45:36.139Z,19.51
2023-01-26T02:46:36.085Z,19.51
2023-01-26T02:47:35.946Z,19.51
2023-01-26T02:48:35.878Z,19.52
2023-01-26T02:49:35.821Z,19.52
2023-01-26T02:50:35.795Z,19.52
2023-01-26T02:51:35.707Z,19.53
2023-01-26T02:52:35.637Z,19.53
2023-01-26T02:53:35.573Z,19.54
2023-01-26T02:54:35.522Z,19.54
2023-01-26T02:55:35.445Z,19.54
2023-01-26T02:56:35.395Z,19.54
2023-01-26T02:57:35.424Z,19.55
2023-01-26T02:58:35.285Z,19.54
2023-01-26T02:59:35.215Z,19.55
2023-01-26T03:00:35.186Z,19.55
2023-01-26T03:01:35.105Z,19.56
2023-01-26T03:03:35.004Z,19.56
2023-01-26T03:04:34.928Z,19.56
2023-01-26T03:05:34.956Z,19.57
2023-01-26T03:06:34.827Z,19.56
2023-01-26T03:07:34.763Z,19.56
2023-01-26T03:08:34.701Z,19.56
2023-01-26T03:09:34.654Z,19.56
2023-01-26T03:10:34.591Z,19.57
2023-01-26T03:11:35.446Z,19.57
2023-01-26T03:12:34.462Z,19.57
2023-01-26T03:13:34.409Z,19.57
2023-01-26T03:14:34.347Z,19.58
2023-01-26T03:15:34.293Z,19.57
2023-01-26T03:16:34.300Z,19.58
2023-01-26T03:17:34.181Z,19.57
2023-01-26T03:18:34.108Z,19.58
2023-01-26T03:19:34.037Z,19.58
2023-01-26T03:20:33.968Z,19.58
2023-01-26T03:21:33.916Z,19.58
2023-01-26T03:22:33.849Z,19.58
2023-01-26T03:23:33.790Z,19.59
2023-01-26T03:24:33.723Z,19.59
2023-01-26T03:25:33.665Z,19.59
2023-01-26T03:26:33.603Z,19.59
2023-01-26T03:27:33.546Z,19.59
2023-01-26T04:17:32.271Z,19.60
2023-01-26T04:27:32.040Z,19.61
2023-01-26T04:37:31.815Z,19.61
2023-01-26T04:38:31.771Z,19.62
2023-01-26T04:39:31.766Z,19.61
2023-01-26T04:40:31.736Z,19.61
2023-01-26T04:41:31.705Z,19.61
2023-01-26T04:42:31.685Z,19.61
2023-01-26T04:43:31.653Z,19.61
2023-01-26T04:44:31.632Z,19.61
2023-01-26T04:45:31.617Z,19.61
2023-01-26T04:46:31.570Z,19.60
2023-01-26T04:47:31.536Z,19.61
2023-01-26T04:48:31.507Z,19.61
2023-01-26T04:49:31.489Z,19.60
2023-01-26T04:50:31.455Z,19.61
2023-01-26T04:51:31.431Z,19.61
2023-01-26T04:52:31.420Z,19.61
2023-01-26T05:14:31.552Z,19.59
2023-01-26T07:17:27.034Z,20.81
2023-01-26T07:18:26.972Z,20.82
2023-01-26T07:19:26.892Z,20.83
2023-01-26T07:20:26.854Z,20.83
2023-01-26T07:21:26.745Z,20.85
2023-01-26T07:22:26.709Z,20.85
2023-01-26T07:23:26.617Z,20.83
2023-01-26T07:24:26.572Z,20.82
2023-01-26T07:26:26.423Z,20.83
2023-01-26T07:27:26.348Z,20.83
2023-01-26T07:28:26.292Z,20.84
2023-01-26T07:29:26.205Z,20.84
2023-01-26T07:30:27.970Z,20.84
2023-01-26T07:31:26.242Z,20.85
2023-01-26T07:32:25.987Z,20.85
2023-01-26T07:33:25.938Z,20.86
2023-01-26T07:34:25.863Z,20.87
2023-01-26T07:35:25.799Z,20.88
2023-01-26T07:36:25.727Z,20.89
2023-01-26T07:37:25.659Z,20.89
2023-01-26T07:38:25.589Z,20.89
2023-01-26T07:39:25.517Z,20.88
2023-01-26T07:40:25.470Z,20.89
2023-01-26T07:41:25.381Z,20.90
2023-01-26T07:42:25.313Z,20.90
2023-01-26T07:43:25.263Z,20.90
2023-01-26T07:44:25.156Z,20.91
2023-01-26T07:45:25.145Z,20.91
2023-01-26T07:46:25.047Z,20.92
2023-01-26T07:47:24.992Z,20.93
2023-01-26T07:48:24.881Z,20.94
2023-01-26T07:49:24.827Z,20.93
2023-01-26T07:50:24.843Z,20.94
2023-01-26T07:51:24.725Z,20.94
2023-01-26T07:52:24.615Z,20.94
2023-01-26T07:53:24.547Z,20.97
2023-01-26T07:54:24.487Z,20.97
2023-01-26T07:55:24.427Z,20.98
2023-01-26T07:56:24.356Z,20.98
2023-01-26T07:57:25.042Z,20.98
2023-01-26T07:58:24.211Z,20.99
2023-01-26T07:59:24.133Z,21.00
2023-01-26T08:00:24.066Z,20.99
2023-01-26T08:01:24.037Z,21.00
2023-01-26T08:02:23.913Z,21.00
2023-01-26T08:03:23.859Z,21.01
2023-01-26T08:04:23.795Z,21.02
2023-01-26T08:05:23.716Z,21.02
2023-01-26T08:06:23.627Z,21.02
2023-01-26T08:07:23.567Z,21.00
2023-01-26T08:08:23.500Z,21.01
2023-01-26T08:09:23.419Z,21.01
2023-01-26T08:10:23.351Z,21.02
2023-01-26T08:11:23.279Z,21.03
2023-01-26T08:12:24.199Z,21.03
2023-01-26T08:13:34.444Z,21.05
2023-01-26T08:14:24.046Z,21.05
2023-01-26T08:15:22.965Z,21.07
2023-01-26T08:16:22.941Z,21.07
2023-01-26T08:17:22.826Z,21.08
2023-01-26T08:18:22.725Z,21.02
2023-01-26T08:19:22.652Z,20.44
2023-01-26T08:20:22.592Z,19.44
2023-01-26T08:21:23.179Z,18.74
2023-01-26T08:22:22.469Z,18.61
2023-01-26T08:23:22.417Z,18.75
2023-01-26T08:24:22.408Z,18.92
2023-01-26T08:25:22.337Z,19.09
2023-01-26T08:26:23.115Z,19.26
2023-01-26T08:27:23.045Z,19.42
2023-01-26T08:28:22.314Z,19.56
2023-01-26T08:29:22.234Z,19.69
2023-01-26T08:30:23.013Z,19.81
2023-01-26T08:31:22.274Z,19.92
2023-01-26T08:32:22.149Z,20.02
2023-01-26T08:33:22.128Z,20.11
2023-01-26T08:34:22.114Z,20.20
2023-01-26T08:35:22.082Z,20.26
2023-01-26T08:36:22.857Z,20.33
2023-01-26T08:37:22.008Z,20.39
2023-01-26T08:38:21.983Z,20.45
2023-01-26T08:39:21.936Z,20.51
2023-01-26T08:40:21.890Z,20.56
2023-01-26T08:41:21.830Z,20.60
2023-01-26T08:42:22.747Z,20.65
2023-01-26T08:43:21.701Z,20.69
2023-01-26T08:44:21.631Z,20.72
2023-01-26T08:45:21.565Z,20.62
2023-01-26T08:46:21.532Z,20.36
2023-01-26T08:47:21.509Z,20.05
2023-01-26T08:48:21.443Z,19.74
2023-01-26T08:49:21.408Z,19.50
2023-01-26T08:50:21.419Z,19.35
2023-01-26T08:51:21.486Z,19.42
2023-01-26T09:00:21.565Z,20.43
2023-01-26T09:46:18.827Z,20.78
2023-01-26T09:47:18.738Z,20.83
2023-01-26T09:48:18.671Z,20.87
2023-01-26T09:49:18.620Z,20.90
2023-01-26T09:50:18.547Z,20.95
2023-01-26T09:51:18.503Z,20.98
2023-01-26T09:52:18.415Z,21.00
2023-01-26T09:53:18.327Z,21.04
2023-01-26T09:54:18.242Z,21.07
2023-01-26T09:55:18.450Z,21.09
2023-01-26T09:56:18.084Z,21.12
2023-01-26T09:57:18.001Z,21.15
2023-01-26T09:58:17.928Z,21.18
2023-01-26T09:59:17.866Z,21.21
2023-01-26T10:00:17.835Z,21.24
2023-01-26T10:01:17.831Z,21.26
2023-01-26T10:02:17.825Z,21.28
2023-01-26T10:03:17.790Z,21.30
2023-01-26T10:04:17.746Z,21.33
2023-01-26T10:05:17.724Z,21.33
2023-01-26T10:06:17.711Z,21.36
2023-01-26T10:07:17.691Z,21.38
2023-01-26T10:08:17.670Z,21.40
2023-01-26T10:09:17.650Z,21.42
2023-01-26T10:10:17.621Z,21.43
2023-01-26T10:11:17.591Z,21.44
2023-01-26T10:12:17.563Z,21.46
2023-01-26T10:13:17.575Z,21.47
2023-01-26T10:14:17.511Z,21.50
2023-01-26T10:15:17.546Z,21.50
2023-01-26T10:16:17.449Z,21.51
2023-01-26T10:17:17.541Z,21.51
2023-01-26T10:18:17.403Z,21.53
2023-01-26T10:19:17.327Z,21.51
2023-01-26T10:20:17.291Z,21.48
2023-01-26T10:21:17.262Z,21.46
2023-01-26T10:22:17.249Z,21.45
2023-01-26T10:23:17.267Z,21.44
2023-01-26T10:24:17.192Z,21.43
2023-01-26T10:25:17.132Z,21.41
2023-01-26T11:01:16.562Z,21.32
2023-01-26T11:02:16.384Z,21.33
2023-01-26T11:03:16.374Z,21.34
2023-01-26T11:05:16.297Z,21.36
2023-01-26T11:06:16.362Z,21.36
2023-01-26T11:07:16.239Z,21.37
2023-01-26T11:10:16.253Z,21.39
2023-01-26T11:23:15.712Z,21.53
2023-01-26T11:44:14.428Z,21.77
2023-01-26T11:46:14.285Z,21.79
2023-01-26T11:47:14.195Z,21.80
2023-01-26T11:48:14.126Z,21.81
2023-01-26T11:49:14.053Z,21.82
2023-01-26T11:50:14.004Z,21.84
2023-01-26T11:51:13.893Z,21.85
2023-01-26T11:52:13.812Z,21.86
2023-01-26T11:53:14.535Z,21.86
2023-01-26T11:54:13.675Z,21.88
2023-01-26T11:55:13.950Z,21.89
2023-01-26T11:56:13.539Z,21.89
2023-01-26T11:57:13.463Z,21.90
2023-01-26T11:58:13.400Z,21.90
2023-01-26T11:59:13.316Z,21.92
2023-01-26T12:00:28.725Z,21.92
2023-01-26T12:01:14.157Z,21.92
2023-01-26T12:02:13.111Z,21.93
2023-01-26T12:03:13.032Z,21.94
2023-01-26T12:04:12.881Z,21.95
2023-01-26T12:05:13.098Z,21.96
2023-01-26T12:06:12.712Z,21.98
2023-01-26T12:07:12.624Z,21.98
2023-01-26T12:08:12.530Z,21.99
2023-01-26T12:09:12.449Z,22.00
2023-01-26T12:10:12.378Z,22.00
2023-01-26T12:11:12.275Z,22.02
2023-01-26T12:12:12.185Z,22.02
2023-01-26T12:13:12.143Z,22.03
2023-01-26T12:14:12.615Z,22.04
2023-01-26T12:15:12.302Z,22.04
2023-01-26T12:16:12.071Z,22.06
2023-01-26T12:17:18.475Z,22.07
2023-01-26T12:19:11.879Z,22.08
2023-01-26T12:20:11.889Z,22.09
2023-01-26T12:21:11.703Z,22.10
2023-01-26T12:22:11.714Z,22.11
2023-01-26T12:23:11.533Z,22.12
2023-01-26T12:24:33.105Z,22.14
2023-01-26T15:14:03.202Z,21.13
2023-01-26T15:15:03.135Z,21.11
2023-01-26T15:16:03.066Z,21.10
2023-01-26T15:17:02.963Z,21.09
2023-01-26T15:18:02.959Z,21.08
2023-01-26T15:19:02.825Z,21.06
2023-01-26T15:20:02.832Z,21.04
2023-01-26T15:21:02.686Z,21.02
2023-01-26T15:22:02.645Z,21.01
2023-01-26T15:23:02.600Z,21.00
2023-01-26T15:24:03.248Z,20.98
2023-01-26T15:25:02.459Z,20.97
2023-01-26T15:26:02.383Z,20.96
2023-01-26T15:27:02.402Z,20.96
2023-01-26T15:28:02.293Z,20.94
2023-01-26T15:30:02.150Z,20.90
2023-01-26T15:31:02.242Z,20.89
2023-01-26T15:32:02.021Z,20.87
2023-01-26T15:33:02.090Z,20.86
2023-01-26T15:39:01.629Z,20.80
2023-01-26T15:40:01.562Z,20.79
2023-01-26T15:41:01.482Z,20.78
2023-01-26T15:42:01.423Z,20.76
2023-01-26T16:13:00.254Z,20.48
2023-01-26T16:14:03.565Z,20.48
2023-01-26T16:15:00.177Z,20.47
2023-01-26T16:16:00.125Z,20.46
2023-01-26T16:17:00.003Z,20.46
2023-01-26T16:17:59.941Z,20.47
2023-01-26T16:18:59.899Z,20.47
2023-01-26T16:19:59.797Z,20.48
2023-01-26T16:20:59.727Z,20.47
2023-01-26T16:21:59.637Z,20.46
2023-01-26T16:22:59.571Z,20.46
2023-01-26T16:23:59.535Z,20.46
2023-01-26T16:24:59.428Z,20.46
2023-01-26T16:26:00.206Z,20.46
2023-01-26T16:26:59.289Z,20.47
2023-01-26T16:27:59.217Z,20.47
2023-01-26T16:28:59.165Z,20.47
2023-01-26T16:29:59.063Z,20.47
2023-01-26T16:31:01.387Z,20.47
2023-01-26T16:31:58.932Z,20.46
2023-01-26T16:32:58.849Z,20.46
2023-01-26T16:33:58.787Z,20.45
2023-01-26T16:34:58.721Z,20.44
2023-01-26T16:35:58.630Z,20.45
2023-01-26T16:36:58.567Z,20.44
2023-01-26T16:37:58.475Z,20.44
2023-01-26T16:38:58.388Z,20.45
2023-01-26T16:39:58.325Z,20.45
2023-01-26T16:40:58.245Z,20.45
2023-01-26T16:41:58.157Z,20.44
2023-01-26T16:42:58.127Z,20.44
2023-01-26T16:43:57.997Z,20.44
2023-01-26T16:44:57.919Z,20.45
2023-01-26T16:45:57.930Z,20.43
2023-01-26T16:46:57.746Z,20.43
2023-01-26T16:47:57.687Z,20.42
2023-01-26T16:48:57.599Z,20.43
2023-01-26T16:49:57.530Z,20.43
2023-01-26T16:50:57.449Z,20.43
2023-01-26T16:51:57.380Z,20.42
2023-01-26T16:52:57.286Z,20.42
2023-01-26T16:53:57.219Z,20.42
2023-01-26T16:54:57.137Z,20.42
2023-01-26T16:55:57.069Z,20.40
2023-01-26T16:56:56.994Z,20.41
2023-01-26T16:57:56.933Z,20.41
2023-01-26T16:58:56.839Z,20.41
2023-01-26T16:59:56.752Z,20.40
2023-01-26T17:00:56.748Z,20.40
2023-01-26T17:01:56.655Z,20.40
2023-01-26T17:02:56.524Z,20.39
2023-01-26T17:03:56.452Z,20.40
2023-01-26T17:04:56.379Z,20.39
2023-01-26T17:05:56.297Z,20.39
2023-01-26T17:06:56.237Z,20.38
2023-01-26T17:07:57.152Z,20.38
2023-01-26T17:08:56.119Z,20.38
2023-01-26T17:09:56.083Z,20.38
2023-01-26T17:11:02.392Z,20.38
2023-01-26T17:11:56.879Z,20.36
2023-01-26T17:12:55.809Z,20.37
2023-01-26T17:13:55.752Z,20.36
2023-01-26T17:14:55.716Z,20.36
2023-01-26T17:15:55.598Z,20.37
2023-01-26T17:16:55.537Z,20.36
2023-01-26T17:17:55.448Z,20.35
2023-01-26T17:18:55.383Z,20.35
2023-01-26T17:19:55.319Z,20.35
2023-01-26T17:20:55.250Z,20.35
2023-01-26T17:21:55.233Z,20.35
2023-01-26T17:22:55.279Z,20.33
2023-01-26T17:23:55.261Z,20.34
2023-01-26T17:24:55.216Z,20.34
2023-01-26T17:25:55.192Z,20.33
2023-01-26T17:26:55.178Z,20.33
2023-01-26T17:27:55.184Z,20.34
2023-01-26T17:28:55.155Z,20.33
2023-01-26T17:29:55.159Z,20.33
2023-01-26T17:30:55.196Z,20.33
2023-01-26T17:31:55.149Z,20.32
2023-01-26T17:32:55.125Z,20.32
2023-01-26T17:33:55.124Z,20.32
2023-01-26T17:34:55.120Z,20.32
2023-01-26T17:35:55.164Z,20.32
2023-01-26T17:36:55.066Z,20.31
2023-01-26T17:37:55.054Z,20.30
2023-01-26T17:38:55.039Z,20.31
2023-01-26T17:39:55.034Z,20.30
2023-01-26T17:40:55.233Z,20.30
2023-01-26T17:41:55.017Z,20.30
2023-01-26T17:42:54.998Z,20.30
2023-01-26T17:43:54.982Z,20.30
2023-01-26T17:44:54.975Z,20.30
2023-01-26T17:45:54.985Z,20.29
2023-01-26T17:46:55.790Z,20.29
2023-01-26T17:47:54.960Z,20.28
2023-01-26T17:48:54.950Z,20.28
2023-01-26T17:49:54.939Z,20.28
2023-01-26T17:50:56.271Z,20.27
2023-01-26T17:51:54.909Z,20.28
2023-01-26T17:52:54.910Z,20.27
2023-01-26T17:53:54.904Z,20.27
2023-01-26T17:54:54.903Z,20.28
2023-01-26T17:55:54.874Z,20.27
2023-01-26T17:56:54.878Z,20.27
2023-01-26T17:57:54.863Z,20.27
2023-01-26T17:58:54.868Z,20.26
2023-01-26T17:59:54.907Z,20.26
2023-01-26T18:00:54.897Z,20.25
2023-01-26T18:01:54.844Z,20.25
2023-01-26T18:02:54.825Z,20.25
2023-01-26T18:03:54.876Z,20.25
2023-01-26T18:04:54.836Z,20.25
2023-01-26T18:05:54.889Z,20.25
2023-01-26T18:06:54.808Z,20.23
2023-01-26T18:07:54.799Z,20.23
2023-01-26T18:08:54.791Z,20.24
2023-01-26T18:09:54.796Z,20.23
2023-01-26T18:10:54.794Z,20.23
2023-01-26T18:11:54.789Z,20.23
2023-01-26T18:12:54.788Z,20.23
2023-01-26T18:13:54.787Z,20.23
2023-01-26T18:14:55.244Z,20.23
2023-01-26T18:15:54.785Z,20.22
2023-01-26T18:16:54.798Z,20.22
2023-01-26T18:17:54.773Z,20.22
2023-01-26T18:18:54.793Z,20.22
2023-01-26T18:19:54.844Z,20.21
2023-01-26T18:20:54.741Z,20.21
2023-01-26T18:21:54.736Z,20.20
2023-01-26T18:22:54.715Z,20.21
2023-01-26T18:23:54.779Z,20.21
2023-01-26T18:24:54.743Z,20.21
2023-01-26T18:25:54.752Z,20.21
2023-01-26T18:26:54.697Z,20.20
2023-01-26T18:27:54.697Z,20.20
2023-01-26T18:28:54.700Z,20.20
2023-01-26T18:29:54.692Z,20.19
2023-01-26T18:30:54.692Z,20.19
2023-01-26T18:31:54.768Z,20.19
2023-01-26T18:32:54.689Z,20.19
2023-01-26T18:33:54.678Z,20.19
2023-01-26T18:34:54.693Z,20.18
2023-01-26T18:35:54.676Z,20.17
2023-01-26T18:36:54.656Z,20.17
2023-01-26T18:37:54.654Z,20.17
2023-01-26T18:38:54.658Z,20.17
2023-01-26T18:39:54.643Z,20.17
2023-01-26T18:40:54.650Z,20.16
2023-01-26T18:41:54.656Z,20.17
2023-01-26T18:42:54.659Z,20.17
2023-01-26T18:43:54.649Z,20.17
2023-01-26T18:44:54.651Z,20.17
2023-01-26T18:45:54.748Z,20.16
2023-01-26T18:46:54.646Z,20.16
2023-01-26T18:47:54.643Z,20.16
2023-01-26T18:48:54.650Z,20.16
2023-01-26T18:49:54.654Z,20.16
2023-01-26T18:50:54.678Z,20.16
2023-01-26T18:51:54.653Z,20.15
2023-01-26T18:52:55.258Z,20.15
2023-01-26T18:53:54.670Z,20.16
2023-01-26T18:54:54.660Z,20.15
2023-01-26T18:55:54.666Z,20.14
2023-01-26T18:56:54.670Z,20.14
2023-01-26T18:57:54.673Z,20.15
2023-01-26T18:58:54.662Z,20.15
2023-01-26T18:59:54.673Z,20.14
2023-01-26T19:00:54.721Z,20.14
2023-01-26T19:01:54.712Z,20.14
2023-01-26T19:02:54.676Z,20.14
2023-01-26T19:03:54.677Z,20.13
2023-01-26T19:04:54.685Z,20.13
2023-01-26T19:05:54.679Z,20.13
2023-01-26T19:06:54.689Z,20.13
2023-01-26T19:07:54.700Z,20.13
2023-01-26T19:08:54.703Z,20.12
2023-01-26T19:09:54.729Z,20.11
2023-01-26T19:10:54.710Z,20.12
2023-01-26T19:11:55.258Z,20.13
2023-01-26T19:12:54.721Z,20.13
2023-01-26T19:13:54.725Z,20.13
2023-01-26T19:14:54.727Z,20.13
2023-01-26T19:15:54.741Z,20.13
2023-01-26T19:16:54.766Z,20.13
2023-01-26T19:17:54.735Z,20.13
2023-01-26T19:18:54.740Z,20.11
2023-01-26T19:19:54.730Z,20.12
2023-01-26T19:20:54.756Z,20.11
2023-01-26T19:21:54.753Z,20.11
2023-01-26T19:22:54.742Z,20.10
2023-01-26T19:23:54.788Z,20.11
2023-01-26T19:24:54.736Z,20.11
2023-01-26T19:25:54.757Z,20.11
2023-01-26T19:26:54.748Z,20.10
2023-01-26T19:27:54.763Z,20.10
2023-01-26T19:28:54.755Z,20.10
2023-01-26T19:29:54.730Z,20.10
2023-01-26T19:30:54.801Z,20.10
2023-01-26T19:31:54.810Z,20.09
2023-01-26T19:32:54.735Z,20.08
2023-01-26T19:33:54.750Z,20.08
2023-01-26T19:34:54.774Z,20.08
2023-01-26T19:35:54.765Z,20.07
2023-01-26T19:36:54.755Z,20.08
2023-01-26T19:37:55.270Z,20.08
2023-01-26T19:38:54.731Z,20.08
2023-01-26T19:39:54.738Z,20.08
2023-01-26T19:40:54.746Z,20.07
2023-01-26T19:41:54.759Z,20.07
2023-01-26T19:42:54.736Z,20.07
2023-01-26T19:43:54.733Z,20.07
2023-01-26T19:44:54.743Z,20.08
2023-01-26T19:45:54.804Z,20.08
2023-01-26T19:46:54.796Z,20.08
2023-01-26T19:47:54.751Z,20.07
2023-01-26T19:48:54.741Z,20.07
2023-01-26T19:49:54.749Z,20.06
2023-01-26T19:50:54.734Z,20.06
2023-01-26T19:51:54.739Z,20.06
2023-01-26T19:52:54.740Z,20.06
2023-01-26T19:53:54.750Z,20.06
2023-01-26T19:54:54.755Z,20.06
2023-01-26T19:55:54.750Z,20.05
2023-01-26T19:56:54.739Z,20.05
2023-01-26T19:57:54.719Z,20.05
2023-01-26T19:58:54.706Z,20.05
2023-01-26T19:59:54.665Z,20.04
2023-01-26T20:00:54.682Z,20.04
2023-01-26T20:01:54.609Z,20.05
2023-01-26T20:02:54.574Z,20.04
2023-01-26T20:03:54.542Z,20.03
2023-01-26T20:04:54.516Z,20.04
2023-01-26T20:05:54.468Z,20.03
2023-01-26T20:06:54.473Z,20.03
2023-01-26T20:07:54.538Z,20.02
2023-01-26T20:08:54.456Z,20.02
2023-01-26T20:09:54.452Z,20.02
2023-01-26T20:10:54.409Z,20.02
2023-01-26T20:11:54.397Z,20.02
2023-01-26T20:12:54.344Z,20.02
2023-01-26T20:13:54.321Z,20.01
2023-01-26T20:14:54.287Z,20.02
2023-01-26T20:15:54.280Z,20.02
2023-01-26T20:16:54.256Z,20.02
2023-01-26T20:17:54.202Z,20.02
2023-01-26T20:18:54.160Z,20.02
2023-01-26T20:19:54.199Z,20.02
2023-01-26T20:20:54.113Z,20.02
2023-01-26T20:21:54.153Z,20.01
2023-01-26T20:22:54.078Z,20.01
2023-01-26T20:23:55.630Z,20.01
2023-01-26T20:24:54.041Z,20.01
2023-01-26T20:25:54.017Z,20.00
2023-01-26T20:26:53.985Z,20.00
2023-01-26T20:27:53.958Z,20.01
2023-01-26T20:28:56.867Z,20.01
2023-01-26T20:29:53.845Z,20.00
2023-01-26T20:30:53.797Z,20.00
2023-01-26T20:31:53.825Z,20.00
2023-01-26T20:32:53.705Z,20.00
2023-01-26T20:33:53.579Z,20.00
2023-01-26T20:34:54.285Z,20.00
2023-01-26T20:35:53.434Z,19.99
2023-01-26T20:36:53.391Z,19.99
2023-01-26T20:37:53.311Z,20.00
2023-01-26T20:38:53.258Z,19.99
2023-01-26T20:39:53.194Z,19.99
2023-01-26T20:40:53.117Z,20.00
2023-01-26T20:41:53.083Z,19.99
2023-01-26T20:42:53.005Z,19.98
2023-01-26T20:43:59.879Z,19.98
2023-01-26T20:44:53.856Z,19.98
2023-01-26T20:45:52.847Z,19.98
2023-01-26T20:46:52.738Z,19.98
2023-01-26T20:47:52.688Z,19.97
2023-01-26T20:48:52.619Z,19.98
2023-01-26T20:49:52.547Z,19.98
2023-01-26T20:50:52.487Z,19.96
2023-01-26T20:51:52.439Z,19.97
2023-01-26T20:52:52.372Z,19.97
2023-01-26T20:53:52.296Z,19.97
2023-01-26T20:54:52.245Z,19.97
2023-01-26T20:55:52.203Z,19.97
2023-01-26T20:56:52.186Z,19.96
2023-01-26T20:57:52.069Z,19.97
2023-01-26T20:58:52.009Z,19.96
2023-01-26T20:59:52.007Z,19.96
2023-01-26T21:00:52.812Z,19.96
2023-01-26T21:01:52.018Z,19.95
2023-01-26T21:02:51.872Z,19.96
2023-01-26T21:03:51.840Z,19.95
2023-01-26T21:04:51.794Z,19.95
2023-01-26T21:05:51.756Z,19.95
2023-01-26T21:06:51.729Z,19.95
2023-01-26T21:07:51.718Z,19.95
2023-01-26T21:08:51.754Z,19.94
2023-01-26T21:09:51.693Z,19.95
2023-01-26T21:10:51.670Z,19.94
2023-01-26T21:11:51.641Z,19.94
2023-01-26T21:12:51.583Z,19.94
2023-01-26T21:13:51.588Z,19.94
2023-01-26T21:14:51.582Z,19.94
2023-01-26T21:15:51.527Z,19.94
2023-01-26T21:16:51.484Z,19.94
2023-01-26T21:17:51.427Z,19.94
2023-01-26T22:20:48.313Z,19.85
2023-01-26T22:21:48.293Z,19.86
2023-01-26T22:22:48.208Z,19.85
2023-01-26T22:23:48.134Z,19.85
2023-01-26T22:25:48.104Z,19.85
2023-01-26T22:26:47.992Z,19.85
2023-01-26T22:27:48.333Z,19.85
2023-01-26T22:28:47.867Z,19.84
2023-01-26T22:29:47.815Z,19.84
2023-01-26T22:30:47.766Z,19.85
2023-01-26T22:31:48.352Z,19.85
2023-01-26T22:32:47.662Z,19.85
2023-01-26T22:33:47.725Z,19.84
2023-01-26T22:34:47.554Z,19.84
2023-01-26T22:35:47.497Z,19.85
2023-01-26T22:36:47.435Z,19.84
2023-01-26T22:37:47.396Z,19.84
2023-01-26T22:38:47.362Z,19.84
2023-01-26T22:39:47.268Z,19.85
2023-01-26T22:40:47.222Z,19.85
2023-01-26T22:41:47.182Z,19.85
2023-01-26T22:42:47.124Z,19.84
2023-01-26T22:43:47.082Z,19.84
2023-01-26T22:44:47.037Z,19.83
2023-01-26T22:45:47.014Z,19.83
2023-01-26T22:46:46.914Z,19.84
2023-01-26T22:47:46.871Z,19.83
2023-01-26T22:48:46.840Z,19.83
2023-01-26T22:49:46.770Z,19.83
2023-01-26T22:50:47.324Z,19.82
2023-01-26T22:51:46.666Z,19.82
2023-01-26T22:52:46.615Z,19.82
2023-01-26T22:53:46.579Z,19.82
2023-01-26T22:54:46.524Z,19.82
2023-01-26T22:55:46.462Z,19.82
2023-01-26T22:56:46.419Z,19.82
2023-01-26T22:57:46.372Z,19.82
2023-01-26T22:58:57.459Z,19.82
2023-01-26T22:59:47.244Z,19.82
2023-01-26T23:00:46.190Z,19.81
2023-01-26T23:01:46.121Z,19.82
2023-01-26T23:02:46.054Z,19.82
2023-01-26T23:03:45.997Z,19.81
2023-01-26T23:04:45.947Z,19.81
2023-01-26T23:05:45.872Z,19.82
2023-01-26T23:06:45.828Z,19.81
2023-01-26T23:07:45.735Z,19.81
2023-01-26T23:08:45.689Z,19.81
2023-01-26T23:09:45.631Z,19.81
2023-01-26T23:10:45.571Z,19.81
2023-01-26T23:11:45.509Z,19.81
2023-01-26T23:12:45.467Z,19.80
2023-01-26T23:13:45.392Z,19.81
2023-01-26T23:14:45.319Z,19.81
2023-01-26T23:15:45.272Z,19.81
2023-01-26T23:16:45.273Z,19.80
2023-01-26T23:17:45.175Z,19.81
2023-01-26T23:18:45.092Z,19.80
2023-01-26T23:19:45.029Z,19.81
2023-01-26T23:20:44.969Z,19.81
2023-01-26T23:21:44.904Z,19.80
2023-01-26T23:22:44.857Z,19.80
2023-01-26T23:23:44.862Z,19.80
2023-01-26T23:24:44.737Z,19.80
2023-01-26T23:25:44.684Z,19.80
2023-01-26T23:26:44.628Z,19.80
2023-01-26T23:27:44.580Z,19.79
2023-01-26T23:28:44.534Z,19.79
2023-01-26T23:29:44.457Z,19.79
2023-01-26T23:30:44.400Z,19.78
2023-01-26T23:31:44.393Z,19.78
2023-01-26T23:32:44.259Z,19.79
2023-01-26T23:33:44.248Z,19.78
2023-01-26T23:34:44.141Z,19.79
2023-01-26T23:35:44.073Z,19.78
2023-01-26T23:36:44.008Z,19.78
2023-01-26T23:37:43.936Z,19.78
2023-01-26T23:38:43.896Z,19.78
2023-01-26T23:39:43.814Z,19.78
2023-01-26T23:40:43.753Z,19.78
2023-01-26T23:41:43.728Z,19.78
2023-01-26T23:43:00.367Z,19.78
2023-01-26T23:43:44.587Z,19.78
2023-01-26T23:44:43.527Z,19.77
2023-01-26T23:45:43.483Z,19.77
2023-01-26T23:46:43.449Z,19.78
2023-01-26T23:47:43.350Z,19.78
2023-01-26T23:48:43.297Z,19.77
2023-01-26T23:49:43.257Z,19.78
2023-01-26T23:50:43.191Z,19.78
2023-01-26T23:51:43.132Z,19.77
2023-01-26T23:52:43.068Z,19.77
2023-01-26T23:53:43.011Z,19.76
2023-01-26T23:54:42.989Z,19.76
2023-01-26T23:55:42.918Z,19.76
2023-01-26T23:56:42.857Z,19.76
2023-01-26T23:57:42.800Z,19.76
2023-01-26T23:58:42.749Z,19.75
2023-01-26T23:59:42.687Z,19.76
